sensor_id;sensor_type;location;lat;lon;timestamp;pressure;altitude;pressure_sealevel;temperature;humidity
11349;BME280;5729;43.570;27.826;2023-06-04T00:00:05;99334.69;;;18.35;100.00
11349;BME280;5729;43.570;27.826;2023-06-04T00:02:32;99336.97;;;18.40;100.00
11349;BME280;5729;43.570;27.826;2023-06-04T00:04:57;99339.75;;;18.36;100.00
11349;BME280;5729;43.570;27.826;2023-06-04T00:07:23;99332.78;;;18.32;100.00
11349;BME280;5729;43.570;27.826;2023-06-04T00:09:48;99333.53;;;18.32;100.00
11349;BME280;5729;43.570;27.826;2023-06-04T00:12:14;99337.50;;;18.28;100.00
11349;BME280;5729;43.570;27.826;2023-06-04T00:14:40;99336.72;;;18.27;100.00
11349;BME280;5729;43.570;27.826;2023-06-04T00:17:07;99346.47;;;18.25;100.00
11349;BME280;5729;43.570;27.826;2023-06-04T00:19:32;99338.69;;;18.20;100.00
11349;BME280;5729;43.570;27.826;2023-06-04T00:21:59;99350.47;;;18.09;100.00
11349;BME280;5729;43.570;27.826;2023-06-04T00:24:24;99348.13;;;18.08;100.00
11349;BME280;5729;43.570;27.826;2023-06-04T00:26:50;99351.31;;;18.03;100.00
11349;BME280;5729;43.570;27.826;2023-06-04T00:29:15;99343.97;;;17.93;100.00
11349;BME280;5729;43.570;27.826;2023-06-04T00:31:41;99346.66;;;17.96;100.00
11349;BME280;5729;43.570;27.826;2023-06-04T00:34:06;99342.75;;;17.97;100.00
11349;BME280;5729;43.570;27.826;2023-06-04T00:36:32;99350.47;;;18.06;100.00
11349;BME280;5729;43.570;27.826;2023-06-04T00:38:57;99342.31;;;18.06;100.00
11349;BME280;5729;43.570;27.826;2023-06-04T00:41:22;99347.75;;;18.06;100.00
11349;BME280;5729;43.570;27.826;2023-06-04T00:43:48;99352.78;;;18.14;100.00
11349;BME280;5729;43.570;27.826;2023-06-04T00:46:27;99355.13;;;18.12;100.00
11349;BME280;5729;43.570;27.826;2023-06-04T00:48:53;99349.31;;;18.07;100.00
11349;BME280;5729;43.570;27.826;2023-06-04T00:51:20;99351.63;;;18.08;100.00
11349;BME280;5729;43.570;27.826;2023-06-04T00:53:46;99354.38;;;18.08;100.00
11349;BME280;5729;43.570;27.826;2023-06-04T00:56:12;99356.72;;;18.06;100.00
11349;BME280;5729;43.570;27.826;2023-06-04T00:58:38;99342.75;;;18.01;100.00
11349;BME280;5729;43.570;27.826;2023-06-04T01:01:06;99358.66;;;18.09;100.00
11349;BME280;5729;43.570;27.826;2023-06-04T01:03:36;99354.47;;;17.94;100.00
11349;BME280;5729;43.570;27.826;2023-06-04T01:06:27;99353.63;;;18.04;100.00
11349;BME280;5729;43.570;27.826;2023-06-04T01:08:52;99363.38;;;18.05;100.00
11349;BME280;5729;43.570;27.826;2023-06-04T01:11:30;99358.72;;;17.99;100.00
11349;BME280;5729;43.570;27.826;2023-06-04T01:13:56;99351.72;;;17.98;100.00
11349;BME280;5729;43.570;27.826;2023-06-04T01:16:22;99353.72;;;17.90;100.00
11349;BME280;5729;43.570;27.826;2023-06-04T01:18:48;99346.81;;;17.71;100.00
11349;BME280;5729;43.570;27.826;2023-06-04T01:21:16;99344.50;;;17.66;100.00
11349;BME280;5729;43.570;27.826;2023-06-04T01:23:50;99366.25;;;17.77;100.00
11349;BME280;5729;43.570;27.826;2023-06-04T01:26:30;99358.06;;;17.77;100.00
11349;BME280;5729;43.570;27.826;2023-06-04T01:28:56;99357.69;;;17.75;100.00
11349;BME280;5729;43.570;27.826;2023-06-04T01:31:23;99361.56;;;17.74;100.00
11349;BME280;5729;43.570;27.826;2023-06-04T01:33:56;99345.28;;;17.63;100.00
11349;BME280;5729;43.570;27.826;2023-06-04T01:36:23;99356.94;;;17.64;100.00
11349;BME280;5729;43.570;27.826;2023-06-04T01:38:49;99373.31;;;17.64;100.00
11349;BME280;5729;43.570;27.826;2023-06-04T01:41:14;99370.94;;;17.62;100.00
11349;BME280;5729;43.570;27.826;2023-06-04T01:43:39;99370.19;;;17.69;100.00
11349;BME280;5729;43.570;27.826;2023-06-04T01:46:06;99367.47;;;17.65;100.00
11349;BME280;5729;43.570;27.826;2023-06-04T01:48:33;99372.53;;;17.60;100.00
11349;BME280;5729;43.570;27.826;2023-06-04T01:50:59;99372.91;;;17.65;100.00
11349;BME280;5729;43.570;27.826;2023-06-04T01:53:25;99374.09;;;17.54;100.00
11349;BME280;5729;43.570;27.826;2023-06-04T01:55:51;99376.41;;;17.62;100.00
11349;BME280;5729;43.570;27.826;2023-06-04T01:58:17;99375.25;;;17.67;100.00
11349;BME280;5729;43.570;27.826;2023-06-04T02:00:54;99377.59;;;17.65;100.00
11349;BME280;5729;43.570;27.826;2023-06-04T02:03:23;99380.31;;;17.65;100.00
11349;BME280;5729;43.570;27.826;2023-06-04T02:05:49;99384.22;;;17.60;100.00
11349;BME280;5729;43.570;27.826;2023-06-04T02:08:15;99387.34;;;17.59;100.00
11349;BME280;5729;43.570;27.826;2023-06-04T02:10:46;99392.78;;;17.55;100.00
11349;BME280;5729;43.570;27.826;2023-06-04T02:13:12;99393.19;;;17.50;100.00
11349;BME280;5729;43.570;27.826;2023-06-04T02:15:37;99393.97;;;17.51;100.00
11349;BME280;5729;43.570;27.826;2023-06-04T02:18:13;99397.84;;;17.53;100.00
11349;BME280;5729;43.570;27.826;2023-06-04T02:20:43;99412.66;;;17.56;100.00
11349;BME280;5729;43.570;27.826;2023-06-04T02:23:09;99403.69;;;17.55;100.00
11349;BME280;5729;43.570;27.826;2023-06-04T02:25:35;99409.94;;;17.49;100.00
11349;BME280;5729;43.570;27.826;2023-06-04T02:28:00;99402.13;;;17.51;100.00
11349;BME280;5729;43.570;27.826;2023-06-04T02:30:26;99407.59;;;17.51;100.00
11349;BME280;5729;43.570;27.826;2023-06-04T02:32:51;99423.53;;;17.52;100.00
11349;BME280;5729;43.570;27.826;2023-06-04T02:35:17;99418.50;;;17.51;100.00
11349;BME280;5729;43.570;27.826;2023-06-04T02:37:46;99425.50;;;17.52;100.00
11349;BME280;5729;43.570;27.826;2023-06-04T02:40:11;99420.84;;;17.49;100.00
11349;BME280;5729;43.570;27.826;2023-06-04T02:42:37;99411.91;;;17.48;100.00
11349;BME280;5729;43.570;27.826;2023-06-04T02:45:02;99415.78;;;17.43;100.00
11349;BME280;5729;43.570;27.826;2023-06-04T02:47:28;99420.84;;;17.45;100.00
11349;BME280;5729;43.570;27.826;2023-06-04T02:49:53;99424.75;;;17.44;100.00
11349;BME280;5729;43.570;27.826;2023-06-04T02:52:19;99422.81;;;17.48;100.00
11349;BME280;5729;43.570;27.826;2023-06-04T02:54:46;99411.94;;;17.30;100.00
11349;BME280;5729;43.570;27.826;2023-06-04T02:57:11;99425.13;;;17.42;100.00
11349;BME280;5729;43.570;27.826;2023-06-04T02:59:37;99431.78;;;17.38;100.00
11349;BME280;5729;43.570;27.826;2023-06-04T03:02:04;99429.44;;;17.33;100.00
11349;BME280;5729;43.570;27.826;2023-06-04T03:04:29;99432.94;;;17.30;100.00
11349;BME280;5729;43.570;27.826;2023-06-04T03:07:00;99432.94;;;17.33;100.00
11349;BME280;5729;43.570;27.826;2023-06-04T03:09:26;99442.69;;;17.34;100.00
11349;BME280;5729;43.570;27.826;2023-06-04T03:11:51;99444.59;;;17.41;100.00
11349;BME280;5729;43.570;27.826;2023-06-04T03:14:17;99439.94;;;17.41;100.00
11349;BME280;5729;43.570;27.826;2023-06-04T03:16:43;99448.88;;;17.38;100.00
11349;BME280;5729;43.570;27.826;2023-06-04T03:19:10;99440.72;;;17.35;100.00
11349;BME280;5729;43.570;27.826;2023-06-04T03:21:37;99440.34;;;17.29;100.00
11349;BME280;5729;43.570;27.826;2023-06-04T03:24:06;99445.41;;;17.34;100.00
11349;BME280;5729;43.570;27.826;2023-06-04T03:26:32;99454.72;;;17.40;100.00
11349;BME280;5729;43.570;27.826;2023-06-04T03:28:57;99447.75;;;17.36;100.00
11349;BME280;5729;43.570;27.826;2023-06-04T03:31:23;99449.28;;;17.48;100.00
11349;BME280;5729;43.570;27.826;2023-06-04T03:33:49;99455.47;;;17.52;100.00
11349;BME280;5729;43.570;27.826;2023-06-04T03:36:14;99446.13;;;17.53;100.00
11349;BME280;5729;43.570;27.826;2023-06-04T03:38:41;99441.88;;;17.45;100.00
11349;BME280;5729;43.570;27.826;2023-06-04T03:41:06;99448.84;;;17.53;100.00
11349;BME280;5729;43.570;27.826;2023-06-04T03:43:32;99449.28;;;17.48;100.00
11349;BME280;5729;43.570;27.826;2023-06-04T03:45:57;99457.81;;;17.50;100.00
11349;BME280;5729;43.570;27.826;2023-06-04T03:48:23;99455.09;;;17.53;100.00
11349;BME280;5729;43.570;27.826;2023-06-04T03:50:48;99452.75;;;17.52;100.00
11349;BME280;5729;43.570;27.826;2023-06-04T03:53:14;99460.97;;;17.34;100.00
11349;BME280;5729;43.570;27.826;2023-06-04T03:55:40;99460.56;;;17.32;100.00
11349;BME280;5729;43.570;27.826;2023-06-04T03:58:05;99462.94;;;17.23;100.00
11349;BME280;5729;43.570;27.826;2023-06-04T04:00:31;99461.78;;;17.24;100.00
11349;BME280;5729;43.570;27.826;2023-06-04T04:02:56;99466.84;;;17.00;100.00
11349;BME280;5729;43.570;27.826;2023-06-04T04:05:22;99451.69;;;16.89;100.00
11349;BME280;5729;43.570;27.826;2023-06-04T04:07:47;99479.28;;;17.05;100.00
11349;BME280;5729;43.570;27.826;2023-06-04T04:10:13;99474.63;;;17.02;100.00
11349;BME280;5729;43.570;27.826;2023-06-04T04:12:38;99478.13;;;17.02;100.00
11349;BME280;5729;43.570;27.826;2023-06-04T04:15:04;99482.00;;;17.05;100.00
11349;BME280;5729;43.570;27.826;2023-06-04T04:17:30;99480.84;;;17.06;100.00
11349;BME280;5729;43.570;27.826;2023-06-04T04:19:55;99483.97;;;17.12;100.00
11349;BME280;5729;43.570;27.826;2023-06-04T04:22:21;99477.34;;;17.09;100.00
11349;BME280;5729;43.570;27.826;2023-06-04T04:24:46;99483.94;;;17.04;100.00
11349;BME280;5729;43.570;27.826;2023-06-04T04:27:12;99489.00;;;17.10;100.00
11349;BME280;5729;43.570;27.826;2023-06-04T04:29:37;99496.38;;;17.16;100.00
11349;BME280;5729;43.570;27.826;2023-06-04T04:32:03;99492.91;;;17.23;100.00
11349;BME280;5729;43.570;27.826;2023-06-04T04:34:36;99489.00;;;17.24;100.00
11349;BME280;5729;43.570;27.826;2023-06-04T04:37:05;99488.59;;;17.29;100.00
11349;BME280;5729;43.570;27.826;2023-06-04T04:39:34;99489.38;;;17.33;100.00
11349;BME280;5729;43.570;27.826;2023-06-04T04:41:59;99484.72;;;17.23;100.00
11349;BME280;5729;43.570;27.826;2023-06-04T04:44:25;99496.00;;;17.32;100.00
11349;BME280;5729;43.570;27.826;2023-06-04T04:46:51;99498.69;;;17.39;100.00
11349;BME280;5729;43.570;27.826;2023-06-04T04:49:16;99497.16;;;17.41;100.00
11349;BME280;5729;43.570;27.826;2023-06-04T04:51:42;99490.16;;;17.37;100.00
11349;BME280;5729;43.570;27.826;2023-06-04T04:54:07;99497.91;;;17.56;100.00
11349;BME280;5729;43.570;27.826;2023-06-04T04:56:34;99500.63;;;17.70;100.00
11349;BME280;5729;43.570;27.826;2023-06-04T04:59:01;99502.56;;;17.73;100.00
11349;BME280;5729;43.570;27.826;2023-06-04T05:01:27;99501.78;;;17.80;100.00
11349;BME280;5729;43.570;27.826;2023-06-04T05:03:52;99492.81;;;17.76;100.00
11349;BME280;5729;43.570;27.826;2023-06-04T05:06:18;99503.69;;;17.87;100.00
11349;BME280;5729;43.570;27.826;2023-06-04T05:08:43;99497.47;;;17.86;100.00
11349;BME280;5729;43.570;27.826;2023-06-04T05:11:09;99508.41;;;17.83;100.00
11349;BME280;5729;43.570;27.826;2023-06-04T05:13:34;99504.47;;;17.91;100.00
11349;BME280;5729;43.570;27.826;2023-06-04T05:16:01;99498.28;;;17.76;100.00
11349;BME280;5729;43.570;27.826;2023-06-04T05:18:34;99500.59;;;17.81;100.00
11349;BME280;5729;43.570;27.826;2023-06-04T05:21:00;99508.38;;;17.86;100.00
11349;BME280;5729;43.570;27.826;2023-06-04T05:23:29;99502.91;;;17.93;100.00
11349;BME280;5729;43.570;27.826;2023-06-04T05:25:59;99503.31;;;17.88;100.00
11349;BME280;5729;43.570;27.826;2023-06-04T05:28:26;99500.56;;;17.88;100.00
11349;BME280;5729;43.570;27.826;2023-06-04T05:30:52;99505.63;;;17.93;100.00
11349;BME280;5729;43.570;27.826;2023-06-04T05:33:24;99502.09;;;17.96;100.00
11349;BME280;5729;43.570;27.826;2023-06-04T05:35:50;99520.38;;;18.06;100.00
11349;BME280;5729;43.570;27.826;2023-06-04T05:38:17;99512.13;;;18.21;100.00
11349;BME280;5729;43.570;27.826;2023-06-04T05:40:46;99526.50;;;18.39;100.00
11349;BME280;5729;43.570;27.826;2023-06-04T05:43:12;99522.09;;;18.56;100.00
11349;BME280;5729;43.570;27.826;2023-06-04T05:45:38;99515.38;;;18.74;100.00
11349;BME280;5729;43.570;27.826;2023-06-04T05:48:04;99519.25;;;18.80;100.00
11349;BME280;5729;43.570;27.826;2023-06-04T05:50:30;99514.88;;;18.86;100.00
11349;BME280;5729;43.570;27.826;2023-06-04T05:52:56;99513.63;;;18.98;100.00
11349;BME280;5729;43.570;27.826;2023-06-04T05:55:22;99522.91;;;19.08;100.00
11349;BME280;5729;43.570;27.826;2023-06-04T05:57:48;99518.63;;;19.10;100.00
11349;BME280;5729;43.570;27.826;2023-06-04T06:00:14;99526.09;;;19.03;100.00
11349;BME280;5729;43.570;27.826;2023-06-04T06:02:40;99526.09;;;19.06;100.00
11349;BME280;5729;43.570;27.826;2023-06-04T06:05:06;99532.75;;;18.98;100.00
11349;BME280;5729;43.570;27.826;2023-06-04T06:07:33;99531.19;;;19.01;100.00
11349;BME280;5729;43.570;27.826;2023-06-04T06:09:59;99522.91;;;19.11;100.00
11349;BME280;5729;43.570;27.826;2023-06-04T06:12:24;99523.75;;;19.05;100.00
11349;BME280;5729;43.570;27.826;2023-06-04T06:14:50;99526.44;;;19.08;100.00
11349;BME280;5729;43.570;27.826;2023-06-04T06:17:15;99533.03;;;19.14;100.00
11349;BME280;5729;43.570;27.826;2023-06-04T06:19:40;99530.22;;;19.25;100.00
11349;BME280;5729;43.570;27.826;2023-06-04T06:22:06;99530.63;;;19.20;100.00
11349;BME280;5729;43.570;27.826;2023-06-04T06:24:32;99541.06;;;19.36;100.00
11349;BME280;5729;43.570;27.826;2023-06-04T06:26:57;99542.16;;;19.42;100.00
11349;BME280;5729;43.570;27.826;2023-06-04T06:29:23;99538.56;;;19.55;100.00
11349;BME280;5729;43.570;27.826;2023-06-04T06:31:48;99542.06;;;19.56;100.00
11349;BME280;5729;43.570;27.826;2023-06-04T06:34:14;99537.41;;;19.53;100.00
11349;BME280;5729;43.570;27.826;2023-06-04T06:36:39;99532.34;;;19.51;100.00
11349;BME280;5729;43.570;27.826;2023-06-04T06:39:05;99538.59;;;19.52;100.00
11349;BME280;5729;43.570;27.826;2023-06-04T06:41:30;99540.06;;;19.64;100.00
11349;BME280;5729;43.570;27.826;2023-06-04T06:43:57;99543.38;;;19.82;100.00
11349;BME280;5729;43.570;27.826;2023-06-04T06:46:22;99540.19;;;19.87;100.00
11349;BME280;5729;43.570;27.826;2023-06-04T06:48:48;99550.88;;;19.74;100.00
11349;BME280;5729;43.570;27.826;2023-06-04T06:51:14;99537.16;;;19.78;100.00
11349;BME280;5729;43.570;27.826;2023-06-04T06:53:39;99538.88;;;19.99;100.00
11349;BME280;5729;43.570;27.826;2023-06-04T06:56:05;99550.47;;;20.10;100.00
11349;BME280;5729;43.570;27.826;2023-06-04T06:58:31;99535.97;;;20.13;100.00
11349;BME280;5729;43.570;27.826;2023-06-04T07:00:56;99535.72;;;20.34;100.00
11349;BME280;5729;43.570;27.826;2023-06-04T07:03:22;99534.00;;;20.47;100.00
11349;BME280;5729;43.570;27.826;2023-06-04T07:05:47;99535.53;;;20.52;100.00
11349;BME280;5729;43.570;27.826;2023-06-04T07:08:13;99546.34;;;20.62;100.00
11349;BME280;5729;43.570;27.826;2023-06-04T07:10:39;99545.00;;;20.74;100.00
11349;BME280;5729;43.570;27.826;2023-06-04T07:13:04;99549.03;;;20.93;100.00
11349;BME280;5729;43.570;27.826;2023-06-04T07:15:30;99548.25;;;20.92;100.00
11349;BME280;5729;43.570;27.826;2023-06-04T07:17:55;99552.06;;;20.98;100.00
11349;BME280;5729;43.570;27.826;2023-06-04T07:20:21;99554.91;;;20.91;100.00
11349;BME280;5729;43.570;27.826;2023-06-04T07:22:46;99549.63;;;21.04;100.00
11349;BME280;5729;43.570;27.826;2023-06-04T07:25:12;99544.75;;;21.19;100.00
11349;BME280;5729;43.570;27.826;2023-06-04T07:27:37;99551.38;;;21.18;100.00
11349;BME280;5729;43.570;27.826;2023-06-04T07:30:03;99552.41;;;21.27;100.00
11349;BME280;5729;43.570;27.826;2023-06-04T07:32:29;99557.78;;;21.34;100.00
11349;BME280;5729;43.570;27.826;2023-06-04T07:34:55;99564.75;;;21.39;100.00
11349;BME280;5729;43.570;27.826;2023-06-04T07:37:21;99558.03;;;21.44;100.00
11349;BME280;5729;43.570;27.826;2023-06-04T07:39:46;99561.59;;;21.41;100.00
11349;BME280;5729;43.570;27.826;2023-06-04T07:42:13;99558.56;;;21.35;100.00
11349;BME280;5729;43.570;27.826;2023-06-04T07:44:38;99564.53;;;21.30;100.00
11349;BME280;5729;43.570;27.826;2023-06-04T07:47:04;99559.16;;;21.46;100.00
11349;BME280;5729;43.570;27.826;2023-06-04T07:49:29;99555.63;;;21.69;100.00
11349;BME280;5729;43.570;27.826;2023-06-04T07:51:55;99553.88;;;21.79;100.00
11349;BME280;5729;43.570;27.826;2023-06-04T07:54:20;99561.56;;;21.87;100.00
11349;BME280;5729;43.570;27.826;2023-06-04T07:56:46;99567.13;;;21.84;100.00
11349;BME280;5729;43.570;27.826;2023-06-04T07:59:12;99567.69;;;21.95;100.00
11349;BME280;5729;43.570;27.826;2023-06-04T08:01:37;99560.59;;;22.37;100.00
11349;BME280;5729;43.570;27.826;2023-06-04T08:04:03;99566.78;;;22.97;100.00
11349;BME280;5729;43.570;27.826;2023-06-04T08:06:31;99568.47;;;24.71;100.00
11349;BME280;5729;43.570;27.826;2023-06-04T08:08:57;99561.19;;;26.19;100.00
11349;BME280;5729;43.570;27.826;2023-06-04T08:11:22;99570.34;;;28.58;98.17
11349;BME280;5729;43.570;27.826;2023-06-04T08:13:48;99573.97;;;30.70;58.87
11349;BME280;5729;43.570;27.826;2023-06-04T08:16:14;99569.41;;;31.77;49.61
11349;BME280;5729;43.570;27.826;2023-06-04T08:18:40;99583.97;;;32.13;43.87
11349;BME280;5729;43.570;27.826;2023-06-04T08:21:09;99580.75;;;32.45;42.87
11349;BME280;5729;43.570;27.826;2023-06-04T08:23:36;99573.38;;;33.53;47.59
11349;BME280;5729;43.570;27.826;2023-06-04T08:26:02;99588.91;;;34.42;38.88
11349;BME280;5729;43.570;27.826;2023-06-04T08:28:27;99592.47;;;34.98;38.73
11349;BME280;5729;43.570;27.826;2023-06-04T08:30:53;99594.31;;;35.76;36.09
11349;BME280;5729;43.570;27.826;2023-06-04T08:33:18;99592.97;;;35.08;35.26
11349;BME280;5729;43.570;27.826;2023-06-04T08:35:43;99587.63;;;35.04;34.44
11349;BME280;5729;43.570;27.826;2023-06-04T08:38:09;99587.38;;;34.46;35.47
11349;BME280;5729;43.570;27.826;2023-06-04T08:40:34;99590.13;;;35.19;36.93
11349;BME280;5729;43.570;27.826;2023-06-04T08:43:01;99596.03;;;36.31;38.94
11349;BME280;5729;43.570;27.826;2023-06-04T08:45:27;99590.91;;;36.70;32.25
11349;BME280;5729;43.570;27.826;2023-06-04T08:47:53;99594.97;;;38.10;38.38
11349;BME280;5729;43.570;27.826;2023-06-04T08:50:22;99595.13;;;37.07;33.24
11349;BME280;5729;43.570;27.826;2023-06-04T08:52:53;99593.53;;;37.17;31.92
11349;BME280;5729;43.570;27.826;2023-06-04T08:55:20;99580.75;;;37.40;34.36
11349;BME280;5729;43.570;27.826;2023-06-04T08:57:47;99593.84;;;36.84;32.68
11349;BME280;5729;43.570;27.826;2023-06-04T09:00:15;99591.78;;;36.54;34.08
11349;BME280;5729;43.570;27.826;2023-06-04T09:02:42;99595.06;;;36.58;32.50
11349;BME280;5729;43.570;27.826;2023-06-04T09:05:08;99597.41;;;35.61;33.85
11349;BME280;5729;43.570;27.826;2023-06-04T09:07:36;99601.63;;;34.59;33.33
11349;BME280;5729;43.570;27.826;2023-06-04T09:10:09;99604.84;;;34.13;34.21
11349;BME280;5729;43.570;27.826;2023-06-04T09:12:36;99587.91;;;34.50;35.17
11349;BME280;5729;43.570;27.826;2023-06-04T09:15:05;99596.91;;;33.89;36.33
11349;BME280;5729;43.570;27.826;2023-06-04T09:17:32;99588.66;;;34.56;36.66
11349;BME280;5729;43.570;27.826;2023-06-04T09:19:57;99591.63;;;35.37;34.05
11349;BME280;5729;43.570;27.826;2023-06-04T09:22:33;99591.38;;;34.12;34.33
11349;BME280;5729;43.570;27.826;2023-06-04T09:24:59;99598.97;;;33.95;32.15
11349;BME280;5729;43.570;27.826;2023-06-04T09:27:24;99586.09;;;34.58;37.17
11349;BME280;5729;43.570;27.826;2023-06-04T09:29:55;99607.91;;;34.15;31.80
11349;BME280;5729;43.570;27.826;2023-06-04T09:32:28;99601.13;;;34.55;34.90
11349;BME280;5729;43.570;27.826;2023-06-04T09:35:14;99598.59;;;34.63;32.11
11349;BME280;5729;43.570;27.826;2023-06-04T09:37:52;99601.63;;;34.43;31.33
11349;BME280;5729;43.570;27.826;2023-06-04T09:40:18;99603.66;;;34.31;34.58
11349;BME280;5729;43.570;27.826;2023-06-04T09:42:48;99601.88;;;34.56;31.19
11349;BME280;5729;43.570;27.826;2023-06-04T09:45:28;99596.91;;;33.89;31.21
11349;BME280;5729;43.570;27.826;2023-06-04T09:47:54;99601.50;;;33.93;30.64
11349;BME280;5729;43.570;27.826;2023-06-04T09:50:25;99607.41;;;34.11;33.31
11349;BME280;5729;43.570;27.826;2023-06-04T09:52:51;99610.47;;;34.24;33.58
11349;BME280;5729;43.570;27.826;2023-06-04T09:55:18;99610.28;;;34.50;32.13
11349;BME280;5729;43.570;27.826;2023-06-04T09:57:51;99602.88;;;34.36;36.08
11349;BME280;5729;43.570;27.826;2023-06-04T10:00:17;99608.25;;;33.69;32.05
11349;BME280;5729;43.570;27.826;2023-06-04T10:02:44;99609.63;;;33.91;32.06
11349;BME280;5729;43.570;27.826;2023-06-04T10:05:11;99606.47;;;33.18;30.77
11349;BME280;5729;43.570;27.826;2023-06-04T10:07:45;99602.75;;;32.95;33.93
11349;BME280;5729;43.570;27.826;2023-06-04T10:10:16;99598.09;;;33.18;32.65
11349;BME280;5729;43.570;27.826;2023-06-04T10:12:42;99604.06;;;34.02;34.96
11349;BME280;5729;43.570;27.826;2023-06-04T10:15:12;99599.84;;;34.95;34.31
11349;BME280;5729;43.570;27.826;2023-06-04T10:17:38;99596.78;;;34.38;36.57
11349;BME280;5729;43.570;27.826;2023-06-04T10:20:06;99591.03;;;35.60;36.85
11349;BME280;5729;43.570;27.826;2023-06-04T10:22:33;99591.34;;;36.03;29.90
11349;BME280;5729;43.570;27.826;2023-06-04T10:25:00;99605.56;;;35.64;31.51
11349;BME280;5729;43.570;27.826;2023-06-04T10:27:25;99589.03;;;35.55;34.42
11349;BME280;5729;43.570;27.826;2023-06-04T10:29:52;99596.06;;;34.76;31.25
11349;BME280;5729;43.570;27.826;2023-06-04T10:32:18;99580.72;;;34.16;33.11
11349;BME280;5729;43.570;27.826;2023-06-04T10:34:46;99596.94;;;34.01;34.42
11349;BME280;5729;43.570;27.826;2023-06-04T10:37:22;99591.56;;;33.80;33.54
11349;BME280;5729;43.570;27.826;2023-06-04T10:39:55;99586.16;;;33.71;32.71
11349;BME280;5729;43.570;27.826;2023-06-04T10:42:22;99597.84;;;32.07;33.42
11349;BME280;5729;43.570;27.826;2023-06-04T10:44:52;99588.75;;;31.86;34.41
11349;BME280;5729;43.570;27.826;2023-06-04T10:47:26;99601.75;;;32.15;35.28
11349;BME280;5729;43.570;27.826;2023-06-04T10:49:53;99589.81;;;31.89;35.86
11349;BME280;5729;43.570;27.826;2023-06-04T10:52:19;99600.09;;;32.03;36.56
11349;BME280;5729;43.570;27.826;2023-06-04T10:54:45;99587.81;;;32.41;36.75
11349;BME280;5729;43.570;27.826;2023-06-04T10:57:17;99583.22;;;32.95;37.21
11349;BME280;5729;43.570;27.826;2023-06-04T10:59:56;99584.78;;;31.93;35.37
11349;BME280;5729;43.570;27.826;2023-06-04T11:02:22;99581.78;;;31.96;41.31
11349;BME280;5729;43.570;27.826;2023-06-04T11:05:04;99587.25;;;31.65;35.22
11349;BME280;5729;43.570;27.826;2023-06-04T11:07:47;99582.47;;;30.07;37.16
11349;BME280;5729;43.570;27.826;2023-06-04T11:10:14;99584.25;;;30.63;39.79
11349;BME280;5729;43.570;27.826;2023-06-04T11:12:47;99571.19;;;30.70;38.19
11349;BME280;5729;43.570;27.826;2023-06-04T11:15:16;99581.81;;;30.42;38.34
11349;BME280;5729;43.570;27.826;2023-06-04T11:17:51;99595.06;;;29.93;39.70
11349;BME280;5729;43.570;27.826;2023-06-04T11:20:18;99592.44;;;30.14;45.22
11349;BME280;5729;43.570;27.826;2023-06-04T11:22:58;99586.78;;;30.96;49.38
11349;BME280;5729;43.570;27.826;2023-06-04T11:25:25;99588.66;;;31.40;39.21
11349;BME280;5729;43.570;27.826;2023-06-04T11:27:54;99592.66;;;31.54;39.76
11349;BME280;5729;43.570;27.826;2023-06-04T11:30:21;99595.03;;;32.01;47.49
11349;BME280;5729;43.570;27.826;2023-06-04T11:32:47;99588.19;;;32.28;42.07
11349;BME280;5729;43.570;27.826;2023-06-04T11:35:12;99583.25;;;32.69;39.98
11349;BME280;5729;43.570;27.826;2023-06-04T11:37:38;99587.78;;;32.35;35.87
11349;BME280;5729;43.570;27.826;2023-06-04T11:40:18;99586.00;;;31.66;35.42
11349;BME280;5729;43.570;27.826;2023-06-04T11:42:44;99585.22;;;31.45;36.75
11349;BME280;5729;43.570;27.826;2023-06-04T11:45:12;99574.56;;;31.64;39.79
11349;BME280;5729;43.570;27.826;2023-06-04T11:47:38;99587.84;;;31.54;35.55
11349;BME280;5729;43.570;27.826;2023-06-04T11:50:04;99579.47;;;31.95;38.65
11349;BME280;5729;43.570;27.826;2023-06-04T11:52:30;99585.59;;;32.19;35.86
11349;BME280;5729;43.570;27.826;2023-06-04T11:54:55;99584.03;;;31.92;35.78
11349;BME280;5729;43.570;27.826;2023-06-04T11:57:21;99586.94;;;31.43;35.25
11349;BME280;5729;43.570;27.826;2023-06-04T11:59:47;99585.59;;;31.18;37.14
11349;BME280;5729;43.570;27.826;2023-06-04T12:02:13;99597.09;;;31.25;37.61
11349;BME280;5729;43.570;27.826;2023-06-04T12:04:38;99586.94;;;31.08;34.69
11349;BME280;5729;43.570;27.826;2023-06-04T12:07:04;99598.41;;;30.51;36.78
11349;BME280;5729;43.570;27.826;2023-06-04T12:09:32;99595.06;;;29.55;36.23
11349;BME280;5729;43.570;27.826;2023-06-04T12:12:23;99593.75;;;28.66;38.63
11349;BME280;5729;43.570;27.826;2023-06-04T12:14:58;99591.56;;;28.70;38.12
11349;BME280;5729;43.570;27.826;2023-06-04T12:17:24;99591.16;;;28.44;41.60
11349;BME280;5729;43.570;27.826;2023-06-04T12:19:50;99581.47;;;28.49;39.68
11349;BME280;5729;43.570;27.826;2023-06-04T12:22:16;99601.78;;;28.46;40.24
11349;BME280;5729;43.570;27.826;2023-06-04T12:24:56;99596.13;;;27.95;39.66
11349;BME280;5729;43.570;27.826;2023-06-04T12:27:24;99591.53;;;27.82;41.68
11349;BME280;5729;43.570;27.826;2023-06-04T12:30:02;99595.53;;;27.23;41.02
11349;BME280;5729;43.570;27.826;2023-06-04T12:32:28;99590.91;;;27.20;42.31
11349;BME280;5729;43.570;27.826;2023-06-04T12:34:54;99590.97;;;27.29;43.62
11349;BME280;5729;43.570;27.826;2023-06-04T12:37:23;99587.31;;;27.41;43.80
11349;BME280;5729;43.570;27.826;2023-06-04T12:39:51;99585.22;;;27.64;42.61
11349;BME280;5729;43.570;27.826;2023-06-04T12:42:17;99591.38;;;27.95;42.75
11349;BME280;5729;43.570;27.826;2023-06-04T12:44:44;99592.91;;;27.96;42.94
11349;BME280;5729;43.570;27.826;2023-06-04T12:47:10;99593.38;;;27.95;39.73
11349;BME280;5729;43.570;27.826;2023-06-04T12:49:36;99603.22;;;27.87;41.15
11349;BME280;5729;43.570;27.826;2023-06-04T12:52:01;99598.28;;;27.72;41.89